createdAt,value
2018-11-12T00:01:58.959Z,17.90
2018-11-12T00:04:27.324Z,19.30
2018-11-12T00:06:55.816Z,19.00
2018-11-12T00:09:24.320Z,18.30
2018-11-12T00:11:52.796Z,19.07
2018-11-12T00:14:21.287Z,20.90
2018-11-12T00:16:49.635Z,20.40
2018-11-12T00:19:18.050Z,18.47
2018-11-12T00:21:46.436Z,20.60
2018-11-12T00:24:14.829Z,22.50
2018-11-12T00:26:43.306Z,24.30
2018-11-12T00:29:11.690Z,19.80
2018-11-12T00:31:40.099Z,22.90
2018-11-12T00:34:08.534Z,21.27
2018-11-12T00:36:36.999Z,22.17
2018-11-12T00:39:07.973Z,19.53
2018-11-12T00:41:36.326Z,22.37
2018-11-12T00:44:12.707Z,21.77
2018-11-12T00:46:41.159Z,20.50
2018-11-12T00:49:09.465Z,22.33
2018-11-12T00:51:37.993Z,21.93
2018-11-12T00:54:06.365Z,22.17
2018-11-12T00:56:34.728Z,20.37
2018-11-12T00:59:03.131Z,22.00
2018-11-12T01:01:31.515Z,23.87
2018-11-12T01:03:59.936Z,20.00
2018-11-12T01:06:28.319Z,20.63
2018-11-12T01:08:56.618Z,22.60
2018-11-12T01:11:24.955Z,25.53
2018-11-12T01:13:53.286Z,25.47
2018-11-12T01:16:21.754Z,24.43
2018-11-12T01:18:50.077Z,20.63
2018-11-12T01:21:18.399Z,20.47
2018-11-12T01:23:46.774Z,21.27
2018-11-12T01:26:15.206Z,22.30
2018-11-12T01:28:43.654Z,23.27
2018-11-12T01:31:12.004Z,24.00
2018-11-12T01:33:40.892Z,21.33
2018-11-12T01:36:09.281Z,24.13
2018-11-12T01:38:37.578Z,23.90
2018-11-12T01:41:06.020Z,20.57
2018-11-12T01:43:34.365Z,21.00
2018-11-12T01:46:02.743Z,20.50
2018-11-12T01:48:31.374Z,18.83
2018-11-12T01:50:59.763Z,20.00
2018-11-12T01:53:28.207Z,19.70
2018-11-12T01:55:56.640Z,19.00
2018-11-12T01:58:25.489Z,19.00
2018-11-12T02:00:53.875Z,20.37
2018-11-12T02:03:22.251Z,21.17
2018-11-12T02:05:50.654Z,20.90
2018-11-12T02:08:19.077Z,24.03
2018-11-12T02:10:47.375Z,18.87
2018-11-12T02:13:15.756Z,18.75
2018-11-12T02:15:44.166Z,16.83
2018-11-12T02:18:12.577Z,18.73
2018-11-12T02:20:40.975Z,20.00
2018-11-12T02:23:09.301Z,17.37
2018-11-12T02:25:38.320Z,17.00
2018-11-12T02:28:06.629Z,18.43
2018-11-12T02:30:40.473Z,18.50
2018-11-12T02:33:08.953Z,17.50
2018-11-12T02:35:37.239Z,18.50
2018-11-12T02:38:05.743Z,19.70
2018-11-12T02:40:34.159Z,20.83
2018-11-12T02:43:02.606Z,21.87
2018-11-12T02:45:31.042Z,24.77
2018-11-12T02:47:59.446Z,20.62
2018-11-12T02:50:27.910Z,21.10
2018-11-12T02:52:56.584Z,23.13
2018-11-12T02:55:24.879Z,21.70
2018-11-12T02:57:53.223Z,20.20
2018-11-12T03:00:22.728Z,21.43
2018-11-12T03:02:51.142Z,21.20
2018-11-12T03:05:19.492Z,19.87
2018-11-12T03:07:47.903Z,18.67
2018-11-12T03:10:18.406Z,19.47
2018-11-12T03:12:46.751Z,20.47
2018-11-12T03:15:15.771Z,19.53
2018-11-12T03:17:44.790Z,22.52
2018-11-12T03:20:16.379Z,21.00
2018-11-12T03:22:44.724Z,21.77
2018-11-12T03:25:14.042Z,25.52
2018-11-12T03:27:43.316Z,21.60
2018-11-12T03:30:13.355Z,26.07
2018-11-12T03:32:42.117Z,21.97
2018-11-12T03:35:11.412Z,25.50
2018-11-12T03:37:40.631Z,25.12
2018-11-12T03:40:10.782Z,26.15
2018-11-12T03:42:39.208Z,26.63
2018-11-12T03:45:09.253Z,25.23
2018-11-12T03:47:37.687Z,30.77
2018-11-12T03:50:08.132Z,29.97
2018-11-12T03:52:36.647Z,29.77
2018-11-12T03:55:05.490Z,27.90
2018-11-12T03:57:33.945Z,27.50
2018-11-12T04:00:02.329Z,27.65
2018-11-12T04:02:30.863Z,28.27
2018-11-12T04:04:59.165Z,29.25
2018-11-12T04:07:27.737Z,28.40
2018-11-12T04:09:56.111Z,27.60
2018-11-12T04:12:24.499Z,27.30
2018-11-12T04:14:52.846Z,28.25
2018-11-12T04:17:21.263Z,28.45
2018-11-12T04:19:49.743Z,29.75
2018-11-12T04:22:18.126Z,29.45
2018-11-12T04:24:46.891Z,26.25
2018-11-12T04:27:15.310Z,25.10
2018-11-12T04:29:43.461Z,25.95
2018-11-12T04:32:11.640Z,24.98
2018-11-12T04:34:39.789Z,24.40
2018-11-12T04:37:07.914Z,25.20
2018-11-12T04:39:36.050Z,25.87
2018-11-12T04:42:04.275Z,26.30
2018-11-12T04:44:32.422Z,24.87
2018-11-12T04:47:00.574Z,22.32
2018-11-12T04:49:28.734Z,21.77
2018-11-12T04:51:56.898Z,19.77
2018-11-12T04:54:25.066Z,22.33
2018-11-12T04:56:53.242Z,16.40
2018-11-12T04:59:21.360Z,17.70
2018-11-12T05:01:49.526Z,18.05
2018-11-12T05:04:17.686Z,17.92
2018-11-12T05:06:45.825Z,19.27
2018-11-12T05:09:13.968Z,19.40
2018-11-12T05:11:42.143Z,20.85
2018-11-12T05:14:10.280Z,19.57
2018-11-12T05:16:38.495Z,22.82
2018-11-12T05:19:06.755Z,24.52
2018-11-12T05:21:35.143Z,25.20
2018-11-12T05:24:03.602Z,23.77
2018-11-12T05:26:32.013Z,25.55
2018-11-12T05:29:00.591Z,23.12
2018-11-12T05:31:29.056Z,22.00
2018-11-12T05:33:57.206Z,23.32
2018-11-12T05:36:25.392Z,22.90
2018-11-12T05:38:53.837Z,23.95
2018-11-12T05:41:22.089Z,22.48
2018-11-12T05:43:50.231Z,23.40
2018-11-12T05:46:18.680Z,26.37
2018-11-12T05:48:46.982Z,24.60
2018-11-12T05:51:15.123Z,32.00
2018-11-12T05:53:43.318Z,29.45
2018-11-12T05:56:11.622Z,25.92
2018-11-12T05:58:39.795Z,27.10
2018-11-12T06:01:07.986Z,31.15
2018-11-12T06:03:36.186Z,31.45
2018-11-12T06:06:04.339Z,37.05
2018-11-12T06:08:32.574Z,35.80
2018-11-12T06:11:00.772Z,36.25
2018-11-12T06:13:33.077Z,33.83
2018-11-12T06:16:01.544Z,28.70
2018-11-12T06:18:29.928Z,28.32
2018-11-12T06:20:59.531Z,23.45
2018-11-12T07:15:33.681Z,29.98
2018-11-12T07:18:02.348Z,29.50
2018-11-12T07:20:30.644Z,28.38
2018-11-12T09:33:44.608Z,10.30
2018-11-12T09:36:13.076Z,9.50
2018-11-12T09:38:41.717Z,9.77
2018-11-12T09:41:10.240Z,10.47
2018-11-12T09:43:38.790Z,10.20
2018-11-12T09:46:07.356Z,8.63
2018-11-12T09:48:35.901Z,9.57
2018-11-12T09:51:04.433Z,9.40
2018-11-12T09:53:32.958Z,10.10
2018-11-12T09:56:01.428Z,8.47
2018-11-12T09:58:30.122Z,9.23
2018-11-12T10:00:58.981Z,9.20
2018-11-12T10:03:29.572Z,10.00
2018-11-12T10:05:59.936Z,8.97
2018-11-12T10:08:30.308Z,9.30
2018-11-12T10:11:01.330Z,8.60
2018-11-12T10:13:30.965Z,9.77
2018-11-12T10:15:59.994Z,11.33
2018-11-12T10:18:25.882Z,10.30
2018-11-12T10:20:54.426Z,10.77
2018-11-12T10:23:23.038Z,12.50
2018-11-12T10:25:51.567Z,14.50
2018-11-12T10:28:23.143Z,13.47
2018-11-12T10:30:51.679Z,12.53
2018-11-12T10:33:20.323Z,10.93
2018-11-12T10:35:48.866Z,10.70
2018-11-12T10:38:17.686Z,11.77
2018-11-12T10:40:46.906Z,11.27
2018-11-12T10:43:15.368Z,11.73
2018-11-12T10:45:43.870Z,11.20
2018-11-12T10:48:12.777Z,11.73
2018-11-12T10:50:41.224Z,11.33
2018-11-12T10:53:09.731Z,12.27
2018-11-12T10:55:38.269Z,10.17
2018-11-12T10:58:06.908Z,11.50
2018-11-12T11:00:40.731Z,10.60
2018-11-12T11:03:15.824Z,12.80
2018-11-12T11:05:46.382Z,11.83
2018-11-12T11:08:15.134Z,15.00
2018-11-12T11:10:43.635Z,13.10
2018-11-12T11:13:12.202Z,15.60
2018-11-12T11:15:40.824Z,15.63
2018-11-12T11:18:09.175Z,22.33
2018-11-12T11:20:40.350Z,13.80
2018-11-12T11:23:19.005Z,14.63
2018-11-12T11:28:54.932Z,10.40
2018-11-12T11:31:23.500Z,11.17
2018-11-12T11:33:51.961Z,10.67
2018-11-12T11:36:20.519Z,11.30
2018-11-12T11:38:49.055Z,10.27
2018-11-12T11:41:17.620Z,10.40
2018-11-12T11:43:46.117Z,10.23
2018-11-12T11:46:14.553Z,10.70
2018-11-12T11:48:43.015Z,9.70
2018-11-12T11:51:11.391Z,9.53
2018-11-12T11:53:39.789Z,10.87
2018-11-12T11:56:08.159Z,9.20
2018-11-12T11:58:36.855Z,8.87
2018-11-12T12:01:05.495Z,8.80
2018-11-12T12:03:33.971Z,8.60
2018-11-12T12:06:02.762Z,8.67
2018-11-12T12:08:31.444Z,8.93
2018-11-12T12:10:59.947Z,8.10
2018-11-12T12:13:28.389Z,7.80
2018-11-12T12:15:57.612Z,9.07
2018-11-12T12:18:26.174Z,8.60
2018-11-12T12:20:54.883Z,7.50
2018-11-12T12:23:23.759Z,8.90
2018-11-12T12:25:52.545Z,7.60
2018-11-12T12:28:21.164Z,9.40
2018-11-12T12:30:49.939Z,9.10
2018-11-12T12:33:18.649Z,8.97
2018-11-12T12:35:47.608Z,9.07
2018-11-12T12:38:16.915Z,8.77
2018-11-12T12:40:45.682Z,8.90
2018-11-12T12:43:14.244Z,9.47
2018-11-12T12:45:43.080Z,8.60
2018-11-12T12:48:11.331Z,7.67
2018-11-12T12:50:39.891Z,8.43
2018-11-12T12:53:08.461Z,7.93
2018-11-12T12:55:37.348Z,9.83
2018-11-12T12:58:06.115Z,7.50
2018-11-12T13:00:34.826Z,8.80
2018-11-12T13:03:03.313Z,7.10
2018-11-12T13:05:31.842Z,7.83
2018-11-12T13:08:00.727Z,7.20
2018-11-12T13:10:29.421Z,6.43
2018-11-12T13:12:57.978Z,7.20
2018-11-12T13:15:26.523Z,6.73
2018-11-12T13:17:55.267Z,6.70
2018-11-12T13:20:24.984Z,7.00
2018-11-12T13:22:54.771Z,6.53
2018-11-12T13:25:25.758Z,7.20
2018-11-12T13:27:55.056Z,5.57
2018-11-12T13:30:24.306Z,6.10
2018-11-12T13:32:54.611Z,6.00
2018-11-12T13:35:27.440Z,6.70
2018-11-12T13:37:56.164Z,8.13
2018-11-12T13:40:27.344Z,6.73
2018-11-12T13:42:59.579Z,6.80
2018-11-12T13:45:29.712Z,8.10
2018-11-12T13:47:59.474Z,7.70
2018-11-12T13:50:29.521Z,7.33
2018-11-12T13:52:59.087Z,7.17
2018-11-12T13:55:27.327Z,6.97
2018-11-12T13:57:55.484Z,6.67
2018-11-12T14:00:26.018Z,7.20
2018-11-12T14:02:54.651Z,7.63
2018-11-12T14:05:23.757Z,7.20
2018-11-12T14:07:51.978Z,6.50
2018-11-12T14:10:22.349Z,7.43
2018-11-12T14:12:51.444Z,6.33
2018-11-12T14:15:23.018Z,7.13
2018-11-12T14:17:51.806Z,6.70
2018-11-12T14:20:20.852Z,6.73
2018-11-12T14:22:49.333Z,7.80
2018-11-12T14:25:18.754Z,7.10
2018-11-12T14:27:51.009Z,7.13
2018-11-12T14:30:27.119Z,7.37
2018-11-12T14:32:57.063Z,7.43
2018-11-12T14:35:26.421Z,7.57
2018-11-12T14:37:57.688Z,7.83
2018-11-12T14:40:27.397Z,7.13
2018-11-12T14:42:59.844Z,7.20
2018-11-12T14:45:51.326Z,8.07
2018-11-12T14:48:20.144Z,7.10
2018-11-12T14:50:51.012Z,7.30
2018-11-12T14:53:20.568Z,6.90
2018-11-12T14:55:49.399Z,7.83
2018-11-12T14:58:17.981Z,7.27
2018-11-12T15:00:46.612Z,7.30
2018-11-12T15:03:15.152Z,6.60
2018-11-12T15:05:43.743Z,6.47
2018-11-12T15:08:12.283Z,7.00
2018-11-12T15:10:41.249Z,6.50
2018-11-12T15:13:09.768Z,6.37
2018-11-12T15:15:38.265Z,7.23
2018-11-12T15:18:06.756Z,7.27
2018-11-12T15:20:35.235Z,6.97
2018-11-12T15:23:03.728Z,6.70
2018-11-12T15:25:32.182Z,6.80
2018-11-12T15:28:00.640Z,7.07
2018-11-12T15:30:29.649Z,8.00
2018-11-12T15:45:12.038Z,7.90
2018-11-12T15:47:40.525Z,6.90
2018-11-12T15:50:11.737Z,6.90
2018-11-12T15:52:40.653Z,7.23
2018-11-12T15:55:09.669Z,7.83
2018-11-12T15:57:38.431Z,8.07
2018-11-12T16:00:11.066Z,8.70
2018-11-12T16:02:39.773Z,8.30
2018-11-12T16:05:09.296Z,8.77
2018-11-12T16:07:38.043Z,8.57
2018-11-12T16:10:09.270Z,9.87
2018-11-12T16:12:38.519Z,10.87
2018-11-12T16:15:07.803Z,9.60
2018-11-12T16:17:36.477Z,10.70
2018-11-12T16:20:08.115Z,10.20
2018-11-12T16:22:37.071Z,12.57
2018-11-12T16:25:06.324Z,17.70
2018-11-12T16:27:34.912Z,10.03
2018-11-12T16:30:03.582Z,7.97
2018-11-12T16:32:32.194Z,9.70
2018-11-12T16:35:01.712Z,9.00
2018-11-12T16:37:30.340Z,9.87
2018-11-12T16:39:58.931Z,9.10
2018-11-12T16:42:28.067Z,9.13
2018-11-12T16:44:56.716Z,9.63
2018-11-12T16:47:25.369Z,9.40
2018-11-12T16:49:53.883Z,9.60
2018-11-12T16:52:22.683Z,9.53
2018-11-12T16:54:51.898Z,11.40
2018-11-12T16:57:20.751Z,14.53
2018-11-12T16:59:49.936Z,12.93
2018-11-12T17:02:19.032Z,12.30
2018-11-12T17:04:47.900Z,13.63
2018-11-12T17:07:16.758Z,14.10
2018-11-12T17:09:45.835Z,14.10
2018-11-12T17:12:14.963Z,13.57
2018-11-12T17:14:44.377Z,13.90
2018-11-12T17:17:13.370Z,13.63
2018-11-12T17:19:42.172Z,15.03
2018-11-12T17:22:11.206Z,14.10
2018-11-12T17:24:40.042Z,13.83
2018-11-12T17:27:08.879Z,13.73
2018-11-12T17:29:37.881Z,13.67
2018-11-12T17:32:06.909Z,16.20
2018-11-12T17:34:35.880Z,16.63
2018-11-12T17:37:05.267Z,16.50
2018-11-12T17:39:36.065Z,16.20
2018-11-12T17:42:05.396Z,15.80
2018-11-12T17:44:34.488Z,17.93
2018-11-12T17:47:03.298Z,19.67
2018-11-12T17:49:32.452Z,18.70
2018-11-12T17:52:01.586Z,18.13
2018-11-12T17:54:30.309Z,20.53
2018-11-12T17:56:58.898Z,20.53
2018-11-12T17:59:27.518Z,17.77
2018-11-12T18:01:56.212Z,18.07
2018-11-12T18:04:24.717Z,18.37
2018-11-12T18:06:53.375Z,19.00
2018-11-12T18:09:28.029Z,19.83
2018-11-12T18:11:56.915Z,17.27
2018-11-12T18:14:25.600Z,16.70
2018-11-12T18:16:54.025Z,16.90
2018-11-12T18:19:23.110Z,15.30
2018-11-12T18:21:53.120Z,13.93
2018-11-12T18:24:35.573Z,15.30
2018-11-12T18:27:04.141Z,16.10
2018-11-12T18:32:18.996Z,14.23
2018-11-12T18:34:48.549Z,16.67
2018-11-12T18:37:17.192Z,19.17
2018-11-12T18:39:46.187Z,23.13
2018-11-12T18:42:16.664Z,18.40
2018-11-12T18:44:46.487Z,15.70
2018-11-12T18:47:15.275Z,15.77
2018-11-12T18:49:43.987Z,15.20
2018-11-12T18:52:12.880Z,14.80
2018-11-12T18:54:41.716Z,16.60
2018-11-12T18:57:10.739Z,16.20
2018-11-12T18:59:40.493Z,16.70
2018-11-12T19:02:09.071Z,16.30
2018-11-12T19:04:38.586Z,17.47
2018-11-12T19:07:08.398Z,17.93
2018-11-12T19:09:36.847Z,18.00
2018-11-12T19:12:05.699Z,16.60
2018-11-12T19:14:33.890Z,17.80
2018-11-12T19:17:02.183Z,17.00
2018-11-12T19:19:30.900Z,15.40
2018-11-12T19:21:59.118Z,16.97
2018-11-12T19:24:28.179Z,17.37
2018-11-12T19:27:32.275Z,16.80
2018-11-12T19:30:00.743Z,16.70
2018-11-12T19:32:29.528Z,16.23
2018-11-12T19:34:58.131Z,15.80
2018-11-12T19:37:27.294Z,16.07
2018-11-12T19:39:56.351Z,15.77
2018-11-12T19:42:25.176Z,14.87
2018-11-12T19:44:53.888Z,16.60
2018-11-12T19:47:25.787Z,16.60
2018-11-12T19:49:54.210Z,16.73
2018-11-12T19:52:22.603Z,15.50
2018-11-12T19:54:51.506Z,15.60
2018-11-12T19:57:20.690Z,18.73
2018-11-12T19:59:48.986Z,17.80
2018-11-12T20:02:17.303Z,17.83
2018-11-12T20:04:45.694Z,17.27
2018-11-12T20:07:14.175Z,16.50
2018-11-12T20:09:42.622Z,18.73
2018-11-12T20:12:10.827Z,17.20
2018-11-12T20:14:39.130Z,16.43
2018-11-12T20:17:07.467Z,17.93
2018-11-12T20:19:35.758Z,16.10
2018-11-12T20:22:04.031Z,17.40
2018-11-12T20:24:32.408Z,17.37
2018-11-12T20:27:01.180Z,17.27
2018-11-12T20:29:29.823Z,18.43
2018-11-12T20:31:58.177Z,18.73
2018-11-12T20:34:26.708Z,17.83
2018-11-12T20:36:54.972Z,18.67
2018-11-12T20:39:23.235Z,17.70
2018-11-12T20:41:51.525Z,17.87
2018-11-12T20:44:19.902Z,20.13
2018-11-12T20:46:55.916Z,19.73
2018-11-12T20:49:24.411Z,19.03
2018-11-12T20:51:53.114Z,16.93
2018-11-12T20:54:21.519Z,18.90
2018-11-12T20:56:50.090Z,19.47
2018-11-12T20:59:19.145Z,19.67
2018-11-12T21:01:47.704Z,19.17
2018-11-12T21:04:16.415Z,17.10
2018-11-12T21:06:44.823Z,19.53
2018-11-12T21:09:14.363Z,20.97
2018-11-12T21:11:42.710Z,18.47
2018-11-12T21:14:10.994Z,19.27
2018-11-12T21:16:39.677Z,19.00
2018-11-12T21:19:08.889Z,19.10
2018-11-12T21:21:37.280Z,46.37
2018-11-12T21:24:05.674Z,38.93
2018-11-12T21:26:34.132Z,24.30
2018-11-12T21:29:02.670Z,22.00
2018-11-12T21:31:31.300Z,40.80
2018-11-12T21:33:59.535Z,26.10
2018-11-12T21:36:27.778Z,19.53
2018-11-12T21:38:55.958Z,24.80
2018-11-12T21:41:24.238Z,25.07
2018-11-12T21:43:52.545Z,23.03
2018-11-12T21:46:20.882Z,22.37
2018-11-12T21:48:49.105Z,21.90
2018-11-12T21:51:17.394Z,23.60
2018-11-12T21:53:45.774Z,21.60
2018-11-12T21:56:14.007Z,22.90
2018-11-12T21:58:42.322Z,21.23
2018-11-12T22:01:10.515Z,19.67
2018-11-12T22:03:38.810Z,19.50
2018-11-12T22:06:07.007Z,19.93
2018-11-12T22:08:35.297Z,17.07
2018-11-12T22:11:03.581Z,19.00
2018-11-12T22:13:31.952Z,18.23
2018-11-12T22:16:00.170Z,20.37
2018-11-12T22:18:28.686Z,18.80
2018-11-12T22:20:57.031Z,17.03
2018-11-12T22:23:25.331Z,17.40
2018-11-12T22:25:53.597Z,18.47
2018-11-12T22:28:21.950Z,18.70
2018-11-12T22:30:50.188Z,18.93
2018-11-12T22:33:18.669Z,18.40
2018-11-12T22:35:47.697Z,18.33
2018-11-12T22:38:16.083Z,17.80
2018-11-12T22:40:47.891Z,16.10
2018-11-12T22:43:16.321Z,15.47
2018-11-12T22:45:44.706Z,15.67
2018-11-12T22:48:13.010Z,17.47
2018-11-12T22:50:41.806Z,17.13
2018-11-12T22:53:10.219Z,15.37
2018-11-12T22:55:38.463Z,15.30
2018-11-12T22:58:06.698Z,17.47
2018-11-12T23:00:37.962Z,15.23
2018-11-12T23:03:07.170Z,16.17
2018-11-12T23:05:35.382Z,16.93
2018-11-12T23:08:03.592Z,15.77
2018-11-12T23:10:31.774Z,17.57
2018-11-12T23:13:00.011Z,16.87
2018-11-12T23:15:28.232Z,16.10
2018-11-12T23:17:56.504Z,17.10
2018-11-12T23:20:25.869Z,15.60
2018-11-12T23:22:54.351Z,15.87
2018-11-12T23:25:22.565Z,14.90
2018-11-12T23:27:51.327Z,15.43
2018-11-12T23:30:20.708Z,14.40
2018-11-12T23:32:48.951Z,14.50
2018-11-12T23:35:19.512Z,13.47
2018-11-12T23:37:48.203Z,13.07
2018-11-12T23:40:16.582Z,11.37
2018-11-12T23:42:45.395Z,12.50
2018-11-12T23:45:13.650Z,12.10
2018-11-12T23:47:41.906Z,14.53
2018-11-12T23:50:15.104Z,13.17
2018-11-12T23:52:43.993Z,12.97
2018-11-12T23:55:12.677Z,13.00
2018-11-12T23:57:40.927Z,13.00
